createdAt,value
2018-12-14T00:01:34.125Z,14.90
2018-12-14T00:04:03.016Z,15.23
2018-12-14T00:06:32.330Z,15.83
2018-12-14T00:09:01.199Z,15.57
2018-12-14T00:11:30.072Z,14.30
2018-12-14T00:13:59.092Z,14.93
2018-12-14T00:16:27.957Z,14.40
2018-12-14T00:18:56.767Z,14.57
2018-12-14T00:21:25.544Z,14.80
2018-12-14T00:23:54.431Z,14.70
2018-12-14T00:26:23.227Z,15.03
2018-12-14T00:28:52.117Z,14.87
2018-12-14T00:31:20.855Z,14.17
2018-12-14T00:33:49.680Z,14.30
2018-12-14T00:36:18.576Z,14.10
2018-12-14T00:38:47.466Z,14.70
2018-12-14T00:41:16.245Z,14.37
2018-12-14T00:43:45.135Z,14.47
2018-12-14T00:46:14.136Z,13.63
2018-12-14T00:48:43.179Z,13.83
2018-12-14T00:51:11.916Z,14.10
2018-12-14T00:53:40.690Z,13.43
2018-12-14T00:56:09.486Z,15.15
2018-12-14T00:58:38.206Z,13.97
2018-12-14T01:01:07.066Z,14.10
2018-12-14T01:03:35.935Z,14.07
2018-12-14T01:06:04.826Z,13.53
2018-12-14T01:08:33.729Z,12.47
2018-12-14T01:11:02.507Z,13.25
2018-12-14T01:13:31.285Z,13.63
2018-12-14T01:16:00.279Z,13.37
2018-12-14T01:18:29.165Z,13.30
2018-12-14T01:20:57.982Z,12.97
2018-12-14T01:23:26.956Z,13.63
2018-12-14T01:25:55.950Z,13.53
2018-12-14T01:28:24.779Z,13.53
2018-12-14T01:30:53.479Z,12.87
2018-12-14T01:33:22.499Z,13.17
2018-12-14T01:35:51.350Z,13.13
2018-12-14T01:38:20.175Z,13.07
2018-12-14T01:40:48.964Z,12.60
2018-12-14T01:43:17.750Z,13.28
2018-12-14T01:45:46.648Z,12.50
2018-12-14T01:48:15.436Z,12.90
2018-12-14T01:50:44.292Z,13.40
2018-12-14T01:53:13.216Z,13.37
2018-12-14T01:55:42.092Z,12.70
2018-12-14T01:58:10.785Z,13.33
2018-12-14T02:00:39.764Z,13.70
2018-12-14T02:03:09.415Z,13.13
2018-12-14T02:05:38.976Z,12.73
2018-12-14T02:08:08.435Z,12.77
2018-12-14T02:10:37.886Z,12.50
2018-12-14T02:13:07.360Z,12.63
2018-12-14T02:15:36.069Z,13.53
2018-12-14T02:18:04.955Z,12.83
2018-12-14T02:20:33.856Z,14.20
2018-12-14T02:23:02.746Z,12.70
2018-12-14T02:25:31.519Z,12.13
2018-12-14T02:28:00.418Z,12.03
2018-12-14T02:30:37.924Z,12.60
2018-12-14T02:33:06.685Z,11.93
2018-12-14T02:35:35.509Z,11.73
2018-12-14T02:38:04.672Z,12.23
2018-12-14T02:40:33.566Z,12.30
2018-12-14T02:43:02.547Z,12.40
2018-12-14T02:45:31.310Z,12.53
2018-12-14T02:48:00.137Z,12.80
2018-12-14T02:50:28.910Z,12.37
2018-12-14T02:52:57.689Z,12.47
2018-12-14T02:55:26.565Z,12.30
2018-12-14T02:57:55.487Z,11.87
2018-12-14T03:00:24.442Z,12.53
2018-12-14T03:02:53.149Z,13.48
2018-12-14T03:05:22.028Z,12.70
2018-12-14T03:07:50.839Z,12.13
2018-12-14T03:10:19.611Z,12.53
2018-12-14T03:12:48.394Z,11.90
2018-12-14T03:15:17.131Z,11.93
2018-12-14T03:17:46.380Z,12.13
2018-12-14T03:20:15.165Z,12.73
2018-12-14T03:22:44.002Z,11.73
2018-12-14T03:25:12.856Z,12.07
2018-12-14T03:27:41.738Z,12.67
2018-12-14T03:30:10.667Z,12.83
2018-12-14T03:32:39.548Z,12.47
2018-12-14T03:35:08.809Z,14.13
2018-12-14T03:37:37.707Z,12.67
2018-12-14T03:40:06.797Z,12.83
2018-12-14T03:42:35.766Z,12.00
2018-12-14T03:45:05.012Z,12.77
2018-12-14T03:47:33.977Z,12.07
2018-12-14T03:50:02.856Z,12.03
2018-12-14T03:52:31.600Z,12.33
2018-12-14T03:55:00.438Z,12.53
2018-12-14T03:57:29.150Z,11.97
2018-12-14T03:59:58.217Z,13.00
2018-12-14T04:02:27.096Z,13.17
2018-12-14T04:04:55.952Z,12.90
2018-12-14T04:07:24.890Z,12.50
2018-12-14T04:09:53.768Z,12.20
2018-12-14T04:12:22.559Z,13.13
2018-12-14T04:14:51.549Z,12.47
2018-12-14T04:17:20.307Z,13.03
2018-12-14T04:19:49.111Z,12.70
2018-12-14T04:22:17.956Z,12.77
2018-12-14T04:24:46.714Z,14.17
2018-12-14T04:27:15.687Z,12.80
2018-12-14T04:29:44.421Z,12.23
2018-12-14T04:32:13.299Z,13.00
2018-12-14T04:34:42.093Z,13.17
2018-12-14T04:37:10.782Z,12.50
2018-12-14T04:39:39.800Z,12.87
2018-12-14T04:42:08.552Z,12.33
2018-12-14T04:44:37.388Z,13.40
2018-12-14T04:47:06.594Z,12.80
2018-12-14T04:49:35.573Z,12.53
2018-12-14T04:52:08.562Z,14.10
2018-12-14T04:54:37.447Z,12.90
2018-12-14T04:57:06.318Z,12.87
2018-12-14T04:59:35.326Z,12.90
2018-12-14T05:02:04.218Z,12.43
2018-12-14T05:04:32.927Z,12.83
2018-12-14T05:07:01.686Z,12.70
2018-12-14T05:09:30.610Z,12.43
2018-12-14T05:11:59.478Z,13.20
2018-12-14T05:14:28.375Z,12.70
2018-12-14T05:16:57.218Z,13.60
2018-12-14T05:19:26.248Z,13.03
2018-12-14T05:21:55.266Z,13.17
2018-12-14T05:24:24.222Z,12.00
2018-12-14T05:26:54.038Z,12.83
2018-12-14T05:29:23.327Z,13.98
2018-12-14T05:31:52.520Z,12.90
2018-12-14T05:34:21.616Z,13.00
2018-12-14T05:36:50.591Z,12.18
2018-12-14T05:39:19.391Z,14.20
2018-12-14T05:41:48.180Z,13.57
2018-12-14T05:44:17.075Z,13.40
2018-12-14T05:46:46.167Z,13.07
2018-12-14T05:49:15.050Z,12.77
2018-12-14T05:51:43.814Z,13.78
2018-12-14T05:54:12.838Z,14.50
2018-12-14T05:56:43.469Z,13.47
2018-12-14T05:59:12.447Z,14.10
2018-12-14T06:01:41.557Z,13.63
2018-12-14T06:04:10.578Z,14.23
2018-12-14T06:06:39.498Z,13.10
2018-12-14T06:09:08.725Z,13.33
2018-12-14T06:11:37.730Z,13.90
2018-12-14T06:14:06.607Z,13.17
2018-12-14T06:16:35.437Z,13.80
2018-12-14T06:19:04.685Z,12.87
2018-12-14T06:21:33.456Z,13.83
2018-12-14T06:24:02.169Z,13.63
2018-12-14T06:26:30.947Z,13.27
2018-12-14T06:28:59.837Z,14.30
2018-12-14T06:31:28.616Z,13.33
2018-12-14T06:33:57.523Z,14.07
2018-12-14T06:36:26.199Z,12.97
2018-12-14T06:38:55.197Z,14.90
2018-12-14T06:41:24.177Z,14.20
2018-12-14T06:43:53.077Z,15.10
2018-12-14T06:46:21.862Z,15.55
2018-12-14T06:48:50.740Z,14.40
2018-12-14T06:51:19.537Z,15.95
2018-12-14T06:53:48.427Z,15.20
2018-12-14T06:56:19.840Z,14.17
2018-12-14T06:58:51.794Z,14.63
2018-12-14T07:01:23.260Z,14.90
2018-12-14T07:03:56.883Z,14.53
2018-12-14T07:06:28.143Z,15.78
2018-12-14T07:08:58.345Z,15.20
2018-12-14T07:11:30.825Z,14.20
2018-12-14T07:14:04.992Z,13.33
2018-12-14T07:16:35.485Z,14.20
2018-12-14T07:19:06.428Z,14.37
2018-12-14T07:21:36.665Z,14.07
2018-12-14T07:24:07.639Z,14.50
2018-12-14T07:26:37.862Z,13.90
2018-12-14T07:29:07.600Z,14.40
2018-12-14T07:31:36.367Z,13.63
2018-12-14T07:34:05.157Z,13.43
2018-12-14T07:36:35.815Z,13.07
2018-12-14T07:39:08.121Z,14.10
2018-12-14T07:41:39.609Z,14.03
2018-12-14T07:44:09.007Z,13.60
2018-12-14T07:46:37.929Z,13.70
2018-12-14T07:49:10.302Z,12.80
2018-12-14T07:51:40.883Z,13.07
2018-12-14T07:54:10.592Z,13.40
2018-12-14T07:56:41.184Z,13.67
2018-12-14T07:59:11.920Z,12.77
2018-12-14T08:01:40.747Z,13.37
2018-12-14T08:04:09.940Z,13.80
2018-12-14T08:06:43.038Z,13.67
2018-12-14T08:09:13.453Z,12.93
2018-12-14T08:11:43.516Z,13.20
2018-12-14T08:14:13.852Z,13.70
2018-12-14T08:16:43.803Z,13.87
2018-12-14T08:19:13.409Z,13.67
2018-12-14T08:21:43.831Z,13.37
2018-12-14T08:24:13.950Z,14.77
2018-12-14T08:26:44.848Z,13.50
2018-12-14T08:29:13.787Z,13.30
2018-12-14T08:31:42.541Z,13.83
2018-12-14T08:34:11.466Z,14.98
2018-12-14T08:36:40.185Z,13.73
2018-12-14T08:39:09.023Z,13.13
2018-12-14T08:41:38.320Z,13.27
2018-12-14T08:44:07.164Z,13.50
2018-12-14T08:46:37.281Z,13.33
2018-12-14T08:49:06.172Z,13.33
2018-12-14T08:51:34.940Z,14.23
2018-12-14T08:54:03.706Z,13.27
2018-12-14T08:56:32.477Z,13.23
2018-12-14T08:59:01.349Z,13.60
2018-12-14T09:01:30.456Z,13.17
2018-12-14T09:04:00.161Z,13.13
2018-12-14T09:06:28.952Z,14.43
2018-12-14T09:08:57.827Z,14.20
2018-12-14T09:11:26.729Z,13.33
2018-12-14T09:13:55.535Z,12.90
2018-12-14T09:16:24.439Z,13.50
2018-12-14T09:18:53.150Z,13.20
2018-12-14T09:21:21.888Z,12.87
2018-12-14T09:23:50.738Z,12.90
2018-12-14T09:26:19.767Z,13.63
2018-12-14T09:28:52.207Z,12.43
2018-12-14T09:31:21.427Z,12.73
2018-12-14T09:33:50.183Z,12.97
2018-12-14T09:36:19.108Z,13.33
2018-12-14T09:38:47.881Z,12.47
2018-12-14T09:41:16.608Z,13.27
2018-12-14T09:43:45.359Z,12.90
2018-12-14T09:46:15.032Z,12.33
2018-12-14T09:48:43.801Z,12.60
2018-12-14T09:51:12.693Z,13.00
2018-12-14T09:53:41.307Z,12.27
2018-12-14T09:56:10.162Z,12.27
2018-12-14T09:58:39.098Z,12.07
2018-12-14T10:01:07.897Z,12.80
2018-12-14T10:03:36.726Z,12.20
2018-12-14T10:06:05.972Z,13.43
2018-12-14T10:08:34.760Z,12.63
2018-12-14T10:11:03.582Z,13.50
2018-12-14T10:13:32.404Z,13.13
2018-12-14T10:16:01.128Z,12.47
2018-12-14T10:18:30.112Z,12.57
2018-12-14T10:20:58.896Z,12.60
2018-12-14T10:23:27.683Z,12.70
2018-12-14T10:25:56.493Z,12.40
2018-12-14T10:28:25.346Z,12.17
2018-12-14T10:30:54.157Z,12.47
2018-12-14T10:33:22.851Z,12.50
2018-12-14T10:35:52.229Z,12.37
2018-12-14T10:38:21.333Z,12.73
2018-12-14T10:40:50.111Z,11.43
2018-12-14T10:43:19.214Z,12.33
2018-12-14T10:45:48.822Z,12.57
2018-12-14T10:48:17.721Z,12.77
2018-12-14T10:50:46.587Z,13.45
2018-12-14T10:53:15.592Z,13.17
2018-12-14T10:55:44.365Z,12.10
2018-12-14T10:58:13.162Z,12.60
2018-12-14T11:00:46.145Z,12.57
2018-12-14T11:03:15.032Z,12.43
2018-12-14T11:05:44.018Z,11.83
2018-12-14T11:08:12.813Z,13.35
2018-12-14T11:10:41.795Z,11.97
2018-12-14T11:13:10.587Z,12.93
2018-12-14T11:15:39.793Z,12.03
2018-12-14T11:18:08.722Z,11.97
2018-12-14T11:20:37.564Z,12.13
2018-12-14T11:23:07.072Z,12.03
2018-12-14T11:25:35.944Z,13.90
2018-12-14T11:28:04.836Z,13.20
2018-12-14T11:30:33.726Z,12.73
2018-12-14T11:33:02.622Z,14.45
2018-12-14T11:35:31.399Z,13.27
2018-12-14T11:38:00.098Z,13.23
2018-12-14T11:40:28.835Z,13.65
2018-12-14T11:42:57.772Z,12.43
2018-12-14T11:45:26.646Z,13.07
2018-12-14T11:47:55.390Z,12.63
2018-12-14T11:50:24.425Z,13.00
2018-12-14T11:52:53.211Z,13.00
2018-12-14T11:55:21.959Z,13.03
2018-12-14T11:57:50.792Z,13.13
2018-12-14T12:00:19.691Z,13.50
2018-12-14T12:02:48.431Z,12.73
2018-12-14T12:05:17.362Z,12.40
2018-12-14T12:07:46.447Z,12.40
2018-12-14T12:10:15.228Z,12.80
2018-12-14T12:12:44.062Z,13.33
2018-12-14T12:15:12.922Z,12.50
2018-12-14T12:17:41.742Z,12.13
2018-12-14T12:20:10.617Z,12.30
2018-12-14T12:22:39.465Z,13.37
2018-12-14T12:25:08.372Z,12.63
2018-12-14T12:27:37.161Z,12.43
2018-12-14T12:30:07.154Z,12.93
2018-12-14T12:32:35.912Z,13.20
2018-12-14T12:35:04.886Z,12.67
2018-12-14T12:37:34.140Z,11.97
2018-12-14T12:40:02.971Z,12.07
2018-12-14T12:42:31.809Z,11.77
2018-12-14T12:45:00.703Z,11.90
2018-12-14T12:47:29.486Z,12.78
2018-12-14T12:49:58.272Z,12.43
2018-12-14T12:52:27.198Z,11.60
2018-12-14T12:54:56.050Z,12.60
2018-12-14T12:57:24.844Z,12.30
2018-12-14T12:59:53.639Z,12.10
2018-12-14T13:02:22.522Z,12.00
2018-12-14T13:04:51.400Z,12.03
2018-12-14T13:07:20.284Z,12.80
2018-12-14T13:09:49.095Z,12.98
2018-12-14T13:12:17.960Z,12.07
2018-12-14T13:14:46.718Z,12.03
2018-12-14T13:17:15.544Z,12.40
2018-12-14T13:19:44.523Z,11.87
2018-12-14T13:22:13.415Z,12.23
2018-12-14T13:24:42.311Z,12.70
2018-12-14T13:27:11.090Z,12.90
2018-12-14T13:29:39.822Z,12.73
2018-12-14T13:32:08.561Z,12.73
2018-12-14T13:34:37.313Z,13.83
2018-12-14T13:37:06.423Z,13.13
2018-12-14T13:39:35.230Z,12.50
2018-12-14T13:42:04.124Z,12.63
2018-12-14T13:44:33.106Z,13.23
2018-12-14T13:47:01.835Z,14.07
2018-12-14T13:49:30.692Z,13.77
2018-12-14T13:51:59.681Z,13.10
2018-12-14T13:54:28.455Z,12.90
2018-12-14T13:56:57.353Z,13.33
2018-12-14T13:59:26.235Z,13.30
2018-12-14T14:01:55.032Z,13.73
2018-12-14T14:04:23.785Z,13.27
2018-12-14T14:06:52.799Z,12.87
2018-12-14T14:09:22.054Z,13.57
2018-12-14T14:11:50.802Z,14.93
2018-12-14T14:14:19.783Z,13.33
2018-12-14T14:16:49.491Z,13.63
2018-12-14T14:19:18.371Z,14.03
2018-12-14T14:21:47.154Z,13.80
2018-12-14T14:24:15.935Z,13.37
2018-12-14T14:26:44.933Z,13.53
2018-12-14T14:29:13.931Z,13.47
2018-12-14T14:31:42.815Z,13.67
2018-12-14T14:34:11.602Z,13.20
2018-12-14T14:36:40.502Z,14.67
2018-12-14T14:39:09.391Z,13.93
2018-12-14T14:41:38.381Z,14.37
2018-12-14T14:44:07.479Z,15.68
2018-12-14T14:46:36.248Z,13.57
2018-12-14T14:49:05.061Z,14.37
2018-12-14T14:51:34.231Z,13.70
2018-12-14T14:54:03.005Z,14.30
2018-12-14T14:56:31.785Z,21.87
2018-12-14T14:59:00.609Z,20.43
2018-12-14T15:01:29.338Z,21.33
2018-12-14T15:03:58.166Z,19.70
2018-12-14T15:06:27.062Z,21.77
2018-12-14T15:08:56.131Z,19.40
2018-12-14T15:11:25.336Z,19.23
2018-12-14T15:13:54.166Z,18.73
2018-12-14T15:16:22.920Z,19.00
2018-12-14T15:18:51.981Z,18.30
2018-12-14T15:21:20.796Z,17.53
2018-12-14T15:23:49.556Z,17.30
2018-12-14T15:26:18.382Z,17.23
2018-12-14T15:28:47.372Z,17.30
2018-12-14T15:31:16.504Z,16.53
2018-12-14T15:33:45.239Z,16.80
2018-12-14T15:36:14.142Z,16.75
2018-12-14T15:38:42.975Z,15.10
2018-12-14T15:41:11.805Z,16.50
2018-12-14T15:43:40.690Z,15.50
2018-12-14T15:46:09.424Z,15.93
2018-12-14T15:48:38.382Z,16.15
2018-12-14T15:51:07.156Z,14.43
2018-12-14T15:53:36.027Z,15.87
2018-12-14T15:56:04.942Z,14.33
2018-12-14T15:58:33.832Z,14.97
2018-12-14T16:01:02.599Z,14.47
2018-12-14T16:03:31.599Z,14.40
2018-12-14T16:06:00.591Z,14.57
2018-12-14T16:08:29.483Z,14.00
2018-12-14T16:10:58.371Z,14.93
2018-12-14T16:13:27.273Z,14.50
2018-12-14T16:15:56.153Z,13.97
2018-12-14T16:18:25.039Z,13.77
2018-12-14T16:20:53.805Z,13.80
2018-12-14T16:23:22.723Z,13.80
2018-12-14T16:25:51.986Z,14.53
2018-12-14T16:28:20.792Z,19.75
2018-12-14T16:30:49.631Z,20.53
2018-12-14T16:33:18.421Z,17.70
2018-12-14T16:35:47.157Z,17.50
2018-12-14T16:38:16.026Z,17.03
2018-12-14T16:40:44.830Z,16.07
2018-12-14T16:43:13.731Z,17.60
2018-12-14T16:45:47.396Z,16.80
2018-12-14T16:48:18.233Z,15.33
2018-12-14T16:50:47.865Z,16.40
2018-12-14T16:53:18.331Z,16.27
2018-12-14T16:55:49.517Z,14.43
2018-12-14T16:58:19.056Z,14.40
2018-12-14T17:00:50.941Z,13.83
2018-12-14T17:03:20.746Z,14.03
2018-12-14T17:05:50.333Z,14.40
2018-12-14T17:08:20.942Z,14.10
2018-12-14T17:10:52.678Z,16.60
2018-12-14T17:13:24.208Z,14.30
2018-12-14T17:15:55.015Z,14.03
2018-12-14T17:18:25.537Z,16.50
2018-12-14T17:20:55.292Z,14.67
2018-12-14T17:23:27.609Z,15.33
2018-12-14T17:25:58.109Z,13.87
2018-12-14T17:28:28.599Z,16.20
2018-12-14T17:30:59.372Z,15.63
2018-12-14T17:33:35.874Z,15.23
2018-12-14T17:36:02.058Z,14.67
2018-12-14T17:38:31.095Z,13.27
2018-12-14T17:41:03.184Z,13.10
2018-12-14T17:43:33.999Z,13.80
2018-12-14T17:46:04.759Z,14.87
2018-12-14T17:48:37.054Z,14.30
2018-12-14T17:51:06.470Z,13.43
2018-12-14T17:53:36.187Z,13.47
2018-12-14T17:56:06.594Z,13.00
2018-12-14T17:58:36.500Z,13.10
2018-12-14T18:01:05.914Z,12.13
2018-12-14T18:03:35.713Z,14.07
2018-12-14T18:06:06.274Z,12.50
2018-12-14T18:08:36.532Z,12.13
2018-12-14T18:11:05.970Z,13.70
2018-12-14T18:13:37.134Z,13.27
2018-12-14T18:16:08.117Z,12.23
2018-12-14T18:18:38.734Z,11.50
2018-12-14T18:21:10.294Z,12.63
2018-12-14T18:23:43.632Z,12.30
2018-12-14T18:26:13.020Z,12.13
2018-12-14T18:28:42.617Z,11.40
2018-12-14T18:31:14.070Z,12.20
2018-12-14T18:33:42.866Z,10.80
2018-12-14T18:36:12.374Z,11.97
2018-12-14T18:38:41.196Z,11.00
2018-12-14T18:41:09.946Z,11.83
2018-12-14T18:43:42.724Z,11.77
2018-12-14T18:46:11.552Z,12.17
2018-12-14T18:48:41.047Z,11.97
2018-12-14T18:51:09.892Z,11.90
2018-12-14T18:53:44.733Z,12.23
2018-12-14T18:56:14.367Z,12.20
2018-12-14T18:58:43.326Z,12.70
2018-12-14T19:01:12.323Z,12.27
2018-12-14T19:03:41.155Z,11.60
2018-12-14T19:06:10.614Z,12.30
2018-12-14T19:08:39.453Z,11.00
2018-12-14T19:11:11.665Z,13.10
2018-12-14T19:13:40.553Z,11.13
2018-12-14T19:16:09.535Z,11.43
2018-12-14T19:18:38.433Z,12.40
2018-12-14T19:21:11.792Z,12.37
2018-12-14T19:23:43.674Z,12.03
2018-12-14T19:26:13.282Z,11.93
2018-12-14T19:28:45.039Z,11.70
2018-12-14T19:31:14.503Z,11.70
2018-12-14T19:33:47.773Z,11.57
2018-12-14T19:36:17.460Z,11.90
2018-12-14T19:38:46.455Z,12.30
2018-12-14T19:41:16.044Z,11.33
2018-12-14T19:43:45.035Z,12.40
2018-12-14T19:46:21.643Z,14.13
2018-12-14T19:48:51.715Z,12.77
2018-12-14T19:51:20.713Z,12.33
2018-12-14T19:53:49.590Z,13.30
2018-12-14T19:56:19.508Z,12.63
2018-12-14T19:58:54.437Z,12.70
2018-12-14T20:01:24.882Z,13.33
2018-12-14T20:03:53.755Z,13.57
2018-12-14T20:06:26.258Z,13.43
2018-12-14T20:08:55.112Z,13.10
2018-12-14T20:11:24.008Z,13.60
2018-12-14T20:13:59.032Z,12.83
2018-12-14T20:16:29.908Z,13.13
2018-12-14T20:19:02.147Z,13.40
2018-12-14T20:21:33.952Z,13.47
2018-12-14T20:24:03.267Z,14.10
2018-12-14T20:26:32.463Z,15.20
2018-12-14T20:29:03.654Z,14.50
2018-12-14T20:31:33.542Z,14.57
2018-12-14T20:34:02.540Z,14.53
2018-12-14T20:36:31.433Z,14.33
2018-12-14T20:39:00.413Z,14.30
2018-12-14T20:41:29.213Z,14.63
2018-12-14T20:44:01.538Z,14.30
2018-12-14T20:46:33.342Z,13.90
2018-12-14T20:49:03.312Z,14.90
2018-12-14T20:51:34.393Z,13.97
2018-12-14T20:54:03.282Z,14.87
2018-12-14T20:56:32.276Z,14.90
2018-12-14T20:59:01.149Z,15.03
2018-12-14T21:01:30.552Z,15.40
2018-12-14T21:04:01.179Z,15.53
2018-12-14T21:06:31.190Z,16.32
2018-12-14T21:09:04.582Z,15.20
2018-12-14T21:11:37.164Z,15.77
2018-12-14T21:14:09.067Z,14.63
2018-12-14T21:16:38.467Z,14.33
2018-12-14T21:19:07.548Z,14.20
2018-12-14T21:21:36.523Z,16.27
2018-12-14T21:24:08.582Z,14.73
2018-12-14T21:26:37.673Z,14.53
2018-12-14T21:29:07.792Z,15.10
2018-12-14T21:31:37.287Z,13.27
2018-12-14T21:34:06.283Z,14.83
2018-12-14T21:36:35.578Z,15.23
2018-12-14T21:39:06.357Z,15.60
2018-12-14T21:41:35.095Z,15.47
2018-12-14T21:44:03.902Z,14.67
2018-12-14T21:46:32.913Z,15.20
2018-12-14T21:49:01.765Z,14.50
2018-12-14T21:51:30.570Z,15.63
2018-12-14T21:53:59.415Z,15.83
2018-12-14T21:56:28.311Z,15.73
2018-12-14T21:58:57.113Z,15.90
2018-12-14T22:01:25.897Z,15.70
2018-12-14T22:03:54.619Z,14.90
2018-12-14T22:06:23.583Z,15.70
2018-12-14T22:08:52.464Z,15.23
2018-12-14T22:11:21.447Z,15.37
2018-12-14T22:13:51.056Z,17.40
2018-12-14T22:16:19.862Z,15.57
2018-12-14T22:18:48.744Z,16.43
2018-12-14T22:21:17.523Z,16.60
2018-12-14T22:23:46.424Z,16.50
2018-12-14T22:26:15.377Z,17.17
2018-12-14T22:28:44.193Z,16.13
2018-12-14T22:31:13.193Z,16.50
2018-12-14T22:33:42.036Z,17.40
2018-12-14T22:36:10.895Z,17.20
2018-12-14T22:38:39.753Z,18.00
2018-12-14T22:41:08.528Z,16.67
2018-12-14T22:43:37.422Z,16.60
2018-12-14T22:46:06.136Z,16.20
2018-12-14T22:48:34.990Z,15.93
2018-12-14T22:51:03.992Z,16.97
2018-12-14T22:53:32.870Z,16.90
2018-12-14T22:56:01.873Z,16.27
2018-12-14T22:58:30.756Z,16.83
2018-12-14T23:00:59.737Z,16.20
2018-12-14T23:03:28.899Z,17.55
2018-12-14T23:05:57.833Z,16.90
2018-12-14T23:08:26.789Z,17.70
2018-12-14T23:10:55.657Z,23.20
2018-12-14T23:13:24.491Z,32.90
2018-12-14T23:15:53.265Z,23.43
2018-12-14T23:18:22.061Z,22.97
2018-12-14T23:20:50.922Z,25.90
2018-12-14T23:23:19.737Z,25.70
2018-12-14T23:25:48.629Z,24.47
2018-12-14T23:28:17.411Z,24.17
2018-12-14T23:30:46.307Z,24.27
2018-12-14T23:33:15.037Z,24.10
2018-12-14T23:35:43.988Z,23.80
2018-12-14T23:38:12.978Z,22.97
2018-12-14T23:40:41.730Z,21.30
2018-12-14T23:43:10.490Z,22.23
2018-12-14T23:45:39.337Z,22.00
2018-12-14T23:48:08.127Z,22.00
2018-12-14T23:50:36.960Z,21.20
2018-12-14T23:53:05.771Z,20.93
2018-12-14T23:55:34.576Z,21.00
2018-12-14T23:58:03.468Z,20.53
